Time;durP1;ratioP1;P1;durP2;ratioP2;P2;SDS_P1;SDS_P2;PMS_P1;PMS_P2;Temp;Humidity;BMP_temperature;BMP_pressure;BME280_temperature;BME280_humidity;BME280_pressure;Samples;Min_cycle;Max_cycle;Signal;HPM_P1;HPM_P2
2022/02/16 00:00:54;;;;;;;;;;;;;;;8.17;100.00;97936.59;5062050;28;20331;-63
2022/02/16 00:03:20;;;;;;;;;;;;;;;8.28;100.00;97937.00;5078747;28;20370;-63
2022/02/16 00:05:45;;;;;;;;;;;;;;;8.05;100.00;97926.81;5080949;28;19920;-63
2022/02/16 00:08:12;;;;;;;;;;;;;;;8.08;100.00;97927.53;5079377;28;19926;-63
2022/02/16 00:10:37;;;;;;;;;;;;;;;8.30;100.00;97927.53;5079415;28;19927;-64
2022/02/16 00:13:02;;;;;;;;;;;;;;;7.91;100.00;97929.91;5080794;28;19915;-64
2022/02/16 00:15:28;;;;;;;;;;;;;;;8.29;100.00;97925.84;5080136;28;20404;-63
2022/02/16 00:17:54;;;;;;;;;;;;;;;8.27;100.00;97922.50;5079876;28;19916;-63
2022/02/16 00:20:19;;;;;;;;;;;;;;;8.19;100.00;97924.56;5078771;28;19927;-63
2022/02/16 00:22:45;;;;;;;;;;;;;;;8.20;100.00;97913.38;5060535;28;20396;-64
2022/02/16 00:25:10;;;;;;;;;;;;;;;8.17;100.00;97911.78;5080188;28;19916;-63
2022/02/16 00:27:35;;;;;;;;;;;;;;;8.26;100.00;97910.59;5079038;28;19981;-63
2022/02/16 00:30:01;;;;;;;;;;;;;;;8.22;100.00;97909.03;5079533;28;19912;-64
2022/02/16 00:32:26;;;;;;;;;;;;;;;8.35;100.00;97905.09;5079047;28;20417;-64
2022/02/16 00:34:51;;;;;;;;;;;;;;;8.23;100.00;97891.91;5080678;28;19945;-63
2022/02/16 00:37:17;;;;;;;;;;;;;;;8.09;100.00;97897.59;5079283;28;19912;-63
2022/02/16 00:39:42;;;;;;;;;;;;;;;8.37;100.00;97887.06;5077347;28;20034;-63
2022/02/16 00:42:07;;;;;;;;;;;;;;;7.86;100.00;97881.38;5080194;28;19923;-63
2022/02/16 00:44:32;;;;;;;;;;;;;;;7.89;100.00;97876.16;5080831;28;19931;-63
2022/02/16 00:46:58;;;;;;;;;;;;;;;8.36;100.00;97890.53;5083899;28;20328;-64
2022/02/16 00:49:23;;;;;;;;;;;;;;;8.16;100.00;97873.38;5079539;28;19920;-62
2022/02/16 00:51:49;;;;;;;;;;;;;;;8.21;100.00;97870.63;5079539;28;19919;-63
2022/02/16 00:54:14;;;;;;;;;;;;;;;7.91;100.00;97869.25;5082968;28;20005;-63
2022/02/16 00:56:40;;;;;;;;;;;;;;;8.10;100.00;97871.06;5081377;28;19942;-63
2022/02/16 00:59:05;;;;;;;;;;;;;;;8.22;100.00;97865.44;5083193;28;19916;-62
2022/02/16 01:01:31;;;;;;;;;;;;;;;8.17;100.00;97862.22;5081818;28;19912;-62
2022/02/16 01:03:56;;;;;;;;;;;;;;;8.41;100.00;97862.97;5083435;28;19916;-63
2022/02/16 01:06:21;;;;;;;;;;;;;;;7.88;100.00;97850.56;5083516;28;20294;-62
2022/02/16 01:08:47;;;;;;;;;;;;;;;8.46;100.00;97852.53;5081517;28;19924;-62
2022/02/16 01:11:12;;;;;;;;;;;;;;;8.33;100.00;97839.34;5064352;28;19923;-63
2022/02/16 01:13:37;;;;;;;;;;;;;;;8.28;100.00;97834.41;5082855;28;19935;-63
2022/02/16 01:16:03;;;;;;;;;;;;;;;8.14;100.00;97832.44;5082487;28;19985;-62
2022/02/16 01:18:28;;;;;;;;;;;;;;;8.25;100.00;97826.00;5080986;28;19920;-62
2022/02/16 01:20:53;;;;;;;;;;;;;;;8.32;100.00;97823.09;5062763;28;19973;-63
2022/02/16 01:23:19;;;;;;;;;;;;;;;8.21;100.00;97830.44;5063092;28;20002;-64
2022/02/16 01:25:44;;;;;;;;;;;;;;;8.17;100.00;97813.50;5082439;28;20281;-62
2022/02/16 01:28:10;;;;;;;;;;;;;;;8.30;100.00;97814.66;5084042;28;20615;-62
2022/02/16 01:30:35;;;;;;;;;;;;;;;8.53;100.00;97815.44;5082603;28;19920;-64
2022/02/16 01:33:00;;;;;;;;;;;;;;;8.72;100.00;97806.06;5083239;28;20075;-63
2022/02/16 01:35:26;;;;;;;;;;;;;;;8.35;100.00;97810.19;5083771;28;20462;-63
2022/02/16 01:37:51;;;;;;;;;;;;;;;8.55;100.00;97801.66;5065254;28;20427;-63
2022/02/16 01:40:20;;;;;;;;;;;;;;;8.27;100.00;97796.00;5082768;28;19916;-62
2022/02/16 01:42:46;;;;;;;;;;;;;;;8.35;100.00;97801.66;5066782;28;19942;-63
2022/02/16 01:45:11;;;;;;;;;;;;;;;8.42;100.00;97797.13;5084727;28;19924;-63
2022/02/16 01:47:38;;;;;;;;;;;;;;;8.27;100.00;97804.53;5083198;28;20014;-62
2022/02/16 01:50:04;;;;;;;;;;;;;;;8.34;100.00;97800.78;5082538;28;20391;-63
2022/02/16 01:52:29;;;;;;;;;;;;;;;8.28;100.00;97798.50;5081219;28;19953;-63
2022/02/16 01:54:54;;;;;;;;;;;;;;;8.35;100.00;97792.22;5082555;28;19920;-63
2022/02/16 01:57:20;;;;;;;;;;;;;;;8.32;100.00;97787.19;5082237;28;19973;-63
2022/02/16 01:59:47;;;;;;;;;;;;;;;8.68;100.00;97776.28;5063030;28;19920;-63
2022/02/16 02:02:15;;;;;;;;;;;;;;;8.46;100.00;97776.41;5082027;28;19916;-63
2022/02/16 02:04:40;;;;;;;;;;;;;;;8.31;100.00;97772.72;5082688;28;20006;-63
2022/02/16 02:07:06;;;;;;;;;;;;;;;8.32;100.00;97773.53;5081425;28;20655;-63
2022/02/16 02:09:31;;;;;;;;;;;;;;;8.40;100.00;97773.25;5063978;28;19963;-63
2022/02/16 02:11:58;;;;;;;;;;;;;;;8.49;100.00;97765.19;5081928;28;20373;-64
2022/02/16 02:14:27;;;;;;;;;;;;;;;8.54;100.00;97761.50;5082442;28;20446;-63
2022/02/16 02:16:52;;;;;;;;;;;;;;;8.59;100.00;97767.25;5081629;28;19985;-64
2022/02/16 02:19:18;;;;;;;;;;;;;;;8.59;100.00;97748.47;5081332;28;19920;-64
2022/02/16 02:21:47;;;;;;;;;;;;;;;8.44;100.00;97756.81;5080812;28;20321;-62
2022/02/16 02:24:12;;;;;;;;;;;;;;;8.71;100.00;97749.66;5082637;28;19919;-64
2022/02/16 02:26:38;;;;;;;;;;;;;;;8.46;100.00;97737.06;5081392;28;19920;-64
2022/02/16 02:29:03;;;;;;;;;;;;;;;8.48;100.00;97730.97;5080372;28;19920;-63
2022/02/16 02:31:32;;;;;;;;;;;;;;;8.69;100.00;97729.19;5080974;28;19973;-63
2022/02/16 02:33:58;;;;;;;;;;;;;;;8.31;100.00;97723.97;5081042;28;20293;-63
2022/02/16 02:36:24;;;;;;;;;;;;;;;8.44;100.00;97723.47;5080424;28;19924;-63
2022/02/16 02:38:49;;;;;;;;;;;;;;;8.43;100.00;97721.81;5081133;28;20634;-64
2022/02/16 02:41:15;;;;;;;;;;;;;;;8.44;100.00;97713.22;5079839;28;20301;-64
2022/02/16 02:43:41;;;;;;;;;;;;;;;8.68;100.00;97717.25;5078513;28;20001;-64
2022/02/16 02:46:07;;;;;;;;;;;;;;;8.32;100.00;97705.13;5061901;28;19950;-63
2022/02/16 02:48:32;;;;;;;;;;;;;;;8.66;100.00;97693.38;5081506;28;19951;-64
2022/02/16 02:50:58;;;;;;;;;;;;;;;8.35;100.00;97699.88;5061687;28;19920;-62
2022/02/16 02:53:23;;;;;;;;;;;;;;;8.49;100.00;97695.91;5081072;28;19920;-63
2022/02/16 02:55:48;;;;;;;;;;;;;;;8.37;100.00;97687.00;5080043;28;19916;-64
2022/02/16 02:58:14;;;;;;;;;;;;;;;8.47;100.00;97684.88;5081077;28;19969;-63
2022/02/16 03:00:39;;;;;;;;;;;;;;;8.71;100.00;97676.06;5062689;28;20352;-64
2022/02/16 03:03:05;;;;;;;;;;;;;;;8.69;100.00;97683.00;5080610;28;19920;-62
2022/02/16 03:05:31;;;;;;;;;;;;;;;8.54;100.00;97668.28;5061816;28;20381;-63
2022/02/16 03:07:56;;;;;;;;;;;;;;;8.35;100.00;97668.25;5079212;28;19920;-62
2022/02/16 03:10:21;;;;;;;;;;;;;;;8.70;100.00;97671.00;5080547;28;19952;-63
2022/02/16 03:12:47;;;;;;;;;;;;;;;8.12;100.00;97671.84;5080245;28;19920;-63
2022/02/16 03:15:12;;;;;;;;;;;;;;;8.52;100.00;97667.53;5080214;28;19942;-62
2022/02/16 03:17:37;;;;;;;;;;;;;;;8.58;100.00;97669.81;5081097;28;19950;-63
2022/02/16 03:20:04;;;;;;;;;;;;;;;8.38;100.00;97671.50;5079201;28;19924;-62
2022/02/16 03:22:29;;;;;;;;;;;;;;;8.59;100.00;97661.22;5078416;28;19920;-63
2022/02/16 03:24:56;;;;;;;;;;;;;;;8.60;100.00;97657.75;5080439;28;19920;-63
2022/02/16 03:27:21;;;;;;;;;;;;;;;8.59;100.00;97653.50;5074673;28;19920;-61
2022/02/16 03:29:47;;;;;;;;;;;;;;;8.70;100.00;97640.19;5080736;28;19939;-63
2022/02/16 03:32:12;;;;;;;;;;;;;;;8.37;100.00;97641.63;5080803;28;19991;-63
2022/02/16 03:34:37;;;;;;;;;;;;;;;8.53;100.00;97648.66;5080109;28;19920;-61
2022/02/16 03:37:04;;;;;;;;;;;;;;;8.76;100.00;97651.00;5080237;28;20380;-63
2022/02/16 03:39:30;;;;;;;;;;;;;;;8.75;100.00;97646.78;5080572;28;19985;-63
2022/02/16 03:41:55;;;;;;;;;;;;;;;9.00;100.00;97643.06;5080529;28;19927;-63
2022/02/16 03:44:21;;;;;;;;;;;;;;;8.89;100.00;97632.47;5080199;28;19955;-63
2022/02/16 03:46:46;;;;;;;;;;;;;;;8.98;100.00;97630.28;5079347;28;19990;-62
2022/02/16 03:49:12;;;;;;;;;;;;;;;8.44;100.00;97618.28;5080462;28;19981;-63
2022/02/16 03:51:39;;;;;;;;;;;;;;;8.94;100.00;97625.38;5061043;28;19912;-64
2022/02/16 03:54:04;;;;;;;;;;;;;;;8.66;100.00;97616.41;5043178;28;20069;-63
2022/02/16 03:56:29;;;;;;;;;;;;;;;8.86;100.00;97617.22;5079505;28;20007;-64
2022/02/16 03:58:54;;;;;;;;;;;;;;;8.93;100.00;97613.44;5079305;28;19916;-63
2022/02/16 04:01:20;;;;;;;;;;;;;;;9.11;100.00;97609.16;5080446;28;20397;-63
2022/02/16 04:03:45;;;;;;;;;;;;;;;8.95;100.00;97612.47;5080353;28;19931;-63
2022/02/16 04:06:11;;;;;;;;;;;;;;;8.79;100.00;97598.69;5061207;28;19916;-63
2022/02/16 04:08:36;;;;;;;;;;;;;;;8.75;100.00;97595.44;5078032;28;19916;-64
2022/02/16 04:11:01;;;;;;;;;;;;;;;8.53;100.00;97585.38;5079597;28;19916;-63
2022/02/16 04:13:26;;;;;;;;;;;;;;;8.75;100.00;97585.16;5080100;28;19931;-64
2022/02/16 04:15:52;;;;;;;;;;;;;;;8.95;100.00;97597.06;5062174;28;19916;-62
2022/02/16 04:18:17;;;;;;;;;;;;;;;8.78;100.00;97590.19;5062421;28;19932;-64
2022/02/16 04:20:42;;;;;;;;;;;;;;;8.79;100.00;97591.81;5065265;28;19992;-64
2022/02/16 04:23:09;;;;;;;;;;;;;;;8.70;100.00;97596.56;5082587;28;19927;-63
2022/02/16 04:25:35;;;;;;;;;;;;;;;8.87;100.00;97582.91;5084078;28;19915;-64
2022/02/16 04:28:02;;;;;;;;;;;;;;;8.89;100.00;97589.66;5082053;28;19942;-63
2022/02/16 04:30:27;;;;;;;;;;;;;;;8.70;100.00;97582.00;5083536;28;20353;-64
2022/02/16 04:32:52;;;;;;;;;;;;;;;8.89;100.00;97575.97;5082722;28;19923;-64
2022/02/16 04:35:18;;;;;;;;;;;;;;;8.96;100.00;97582.47;5082855;28;19927;-63
2022/02/16 04:37:43;;;;;;;;;;;;;;;8.82;100.00;97564.34;5082838;28;19927;-65
2022/02/16 04:40:09;;;;;;;;;;;;;;;8.87;100.00;97552.97;5083749;28;19955;-63
2022/02/16 04:42:34;;;;;;;;;;;;;;;8.86;100.00;97546.16;5080742;28;20286;-64
2022/02/16 04:44:59;;;;;;;;;;;;;;;8.60;100.00;97534.59;5084144;28;19965;-62
2022/02/16 04:47:25;;;;;;;;;;;;;;;8.49;100.00;97531.69;5082032;28;21046;-62
2022/02/16 04:49:50;;;;;;;;;;;;;;;8.76;100.00;97534.69;5085009;28;19916;-62
2022/02/16 04:52:16;;;;;;;;;;;;;;;8.75;100.00;97527.88;5081624;28;19926;-63
2022/02/16 04:54:41;;;;;;;;;;;;;;;8.79;100.00;97526.84;5081622;28;19970;-63
2022/02/16 04:57:06;;;;;;;;;;;;;;;8.72;100.00;97523.72;5081182;28;19925;-64
2022/02/16 04:59:31;;;;;;;;;;;;;;;8.79;100.00;97504.56;5082742;28;19965;-64
2022/02/16 05:01:57;;;;;;;;;;;;;;;8.96;100.00;97506.31;5083006;28;20370;-64
2022/02/16 05:04:22;;;;;;;;;;;;;;;8.69;100.00;97507.63;5083230;28;19916;-63
2022/02/16 05:06:47;;;;;;;;;;;;;;;9.15;100.00;97498.50;5082490;28;19916;-63
2022/02/16 05:09:13;;;;;;;;;;;;;;;8.98;100.00;97488.25;5080606;28;20488;-62
2022/02/16 05:11:38;;;;;;;;;;;;;;;9.07;100.00;97492.91;5063558;28;19920;-63
2022/02/16 05:14:03;;;;;;;;;;;;;;;8.72;100.00;97485.22;5082928;28;20389;-62
2022/02/16 05:16:31;;;;;;;;;;;;;;;9.05;100.00;97479.31;5082856;28;20011;-62
2022/02/16 05:18:59;;;;;;;;;;;;;;;9.09;100.00;97473.13;5081833;28;20372;-63
2022/02/16 05:21:24;;;;;;;;;;;;;;;8.83;100.00;97469.31;5083043;28;19936;-64
2022/02/16 05:23:51;;;;;;;;;;;;;;;8.86;100.00;97464.00;5082614;28;19924;-63
2022/02/16 05:26:16;;;;;;;;;;;;;;;8.73;100.00;97463.78;5083350;28;19916;-62
2022/02/16 05:28:41;;;;;;;;;;;;;;;9.07;100.00;97467.22;5081990;28;19922;-64
2022/02/16 05:31:07;;;;;;;;;;;;;;;8.97;100.00;97460.91;5060748;28;19920;-63
2022/02/16 05:33:32;;;;;;;;;;;;;;;8.95;100.00;97457.59;5061693;28;19928;-63
2022/02/16 05:35:57;;;;;;;;;;;;;;;8.89;100.00;97445.06;5061251;28;19927;-64
2022/02/16 05:38:23;;;;;;;;;;;;;;;9.06;100.00;97437.34;5076302;28;19920;-62
2022/02/16 05:40:48;;;;;;;;;;;;;;;8.83;100.00;97429.97;5081696;28;19966;-63
2022/02/16 05:43:14;;;;;;;;;;;;;;;8.71;100.00;97410.88;5064471;28;19927;-64
2022/02/16 05:45:40;;;;;;;;;;;;;;;8.82;100.00;97420.59;5081945;28;19977;-62
2022/02/16 05:48:05;;;;;;;;;;;;;;;8.79;100.00;97412.16;5080654;28;19974;-63
2022/02/16 05:50:31;;;;;;;;;;;;;;;8.88;100.00;97399.78;5081609;28;20015;-63
2022/02/16 05:52:57;;;;;;;;;;;;;;;9.14;100.00;97388.97;5075990;28;20388;-62
2022/02/16 06:01:27;;;;;;;;;;;;;;;8.69;100.00;97359.63;5082240;28;19927;-64
2022/02/16 06:03:53;;;;;;;;;;;;;;;8.88;100.00;97358.69;5064907;28;19916;-64
2022/02/16 06:06:18;;;;;;;;;;;;;;;9.05;100.00;97358.63;5048942;28;19916;-63
2022/02/16 06:08:46;;;;;;;;;;;;;;;8.99;100.00;97358.97;5047662;28;19924;-63
2022/02/16 06:11:11;;;;;;;;;;;;;;;8.89;100.00;97345.75;5065354;28;19912;-64
2022/02/16 06:13:37;;;;;;;;;;;;;;;8.89;100.00;97347.50;5064939;28;19924;-63
2022/02/16 06:16:03;;;;;;;;;;;;;;;8.94;100.00;97353.22;5083222;28;19912;-62
2022/02/16 06:18:28;;;;;;;;;;;;;;;8.81;100.00;97336.81;5065558;28;19975;-63
2022/02/16 06:20:54;;;;;;;;;;;;;;;9.10;100.00;97333.56;5064484;28;19946;-63
2022/02/16 06:23:22;;;;;;;;;;;;;;;8.95;100.00;97327.47;5047719;28;19981;-63
2022/02/16 06:25:47;;;;;;;;;;;;;;;8.95;100.00;97324.91;5065166;28;19973;-64
2022/02/16 06:28:13;;;;;;;;;;;;;;;9.00;100.00;97340.06;5047888;28;19924;-63
2022/02/16 06:30:38;;;;;;;;;;;;;;;9.35;100.00;97327.94;5047784;28;19939;-62
2022/02/16 06:33:03;;;;;;;;;;;;;;;8.99;100.00;97315.31;5064110;28;19935;-63
2022/02/16 06:35:29;;;;;;;;;;;;;;;9.02;100.00;97314.31;5048270;28;19995;-62
2022/02/16 06:37:54;;;;;;;;;;;;;;;9.07;100.00;97323.44;5064593;28;19924;-64
2022/02/16 06:40:20;;;;;;;;;;;;;;;9.02;100.00;97315.16;5064586;28;19936;-62
2022/02/16 06:42:45;;;;;;;;;;;;;;;8.85;100.00;97307.50;5064194;28;19988;-63
2022/02/16 06:45:11;;;;;;;;;;;;;;;8.91;100.00;97291.78;5083292;28;20315;-63
2022/02/16 06:47:36;;;;;;;;;;;;;;;9.04;100.00;97303.06;5083704;28;20303;-64
2022/02/16 06:50:02;;;;;;;;;;;;;;;8.67;100.00;97296.47;5083490;28;19920;-63
2022/02/16 06:52:27;;;;;;;;;;;;;;;9.17;100.00;97304.06;5082770;28;19912;-62
2022/02/16 06:54:52;;;;;;;;;;;;;;;9.25;100.00;97269.44;5083310;28;20396;-62
2022/02/16 06:57:18;;;;;;;;;;;;;;;9.00;100.00;97286.16;5082906;28;20132;-63
2022/02/16 06:59:43;;;;;;;;;;;;;;;9.17;100.00;97285.28;5082993;28;20018;-64
2022/02/16 07:02:08;;;;;;;;;;;;;;;9.32;100.00;97270.75;5082725;28;20058;-64
2022/02/16 07:04:34;;;;;;;;;;;;;;;9.23;100.00;97274.66;5083103;28;19955;-63
2022/02/16 07:06:59;;;;;;;;;;;;;;;9.10;100.00;97277.06;5082591;28;19920;-63
2022/02/16 07:09:24;;;;;;;;;;;;;;;9.25;100.00;97279.72;5083242;28;19920;-63
2022/02/16 07:11:51;;;;;;;;;;;;;;;9.41;100.00;97275.38;5082422;28;20289;-63
2022/02/16 07:14:18;;;;;;;;;;;;;;;9.04;100.00;97277.38;5081942;28;19920;-64
2022/02/16 07:16:43;;;;;;;;;;;;;;;8.91;100.00;97271.25;5081786;28;19919;-64
2022/02/16 07:19:09;;;;;;;;;;;;;;;9.03;100.00;97262.88;5081552;28;20289;-63
2022/02/16 07:21:34;;;;;;;;;;;;;;;9.12;100.00;97264.97;5081485;28;19924;-64
2022/02/16 07:23:59;;;;;;;;;;;;;;;9.01;100.00;97246.75;5081225;28;19974;-64
2022/02/16 07:26:24;;;;;;;;;;;;;;;8.98;100.00;97252.03;5081255;28;19912;-64
2022/02/16 07:28:50;;;;;;;;;;;;;;;9.26;100.00;97258.22;5063196;28;20399;-62
2022/02/16 07:31:15;;;;;;;;;;;;;;;9.36;100.00;97238.84;5081442;28;20332;-62
2022/02/16 07:33:40;;;;;;;;;;;;;;;9.20;100.00;97229.41;5063214;28;19922;-63
2022/02/16 07:36:06;;;;;;;;;;;;;;;9.16;100.00;97220.22;5081695;28;20278;-64
2022/02/16 07:38:31;;;;;;;;;;;;;;;9.40;100.00;97227.50;5082012;28;20446;-63
2022/02/16 07:40:59;;;;;;;;;;;;;;;9.07;100.00;97228.41;5081875;28;19919;-62
2022/02/16 07:43:25;;;;;;;;;;;;;;;9.23;100.00;97214.75;5081353;28;20328;-64
2022/02/16 07:45:50;;;;;;;;;;;;;;;9.26;100.00;97219.72;5081659;28;19920;-63
2022/02/16 07:48:15;;;;;;;;;;;;;;;9.48;100.00;97209.91;5081631;28;19927;-64
2022/02/16 07:50:40;;;;;;;;;;;;;;;9.31;100.00;97197.19;5081398;28;19942;-62
2022/02/16 07:53:06;;;;;;;;;;;;;;;9.44;100.00;97193.00;5081680;28;20003;-63
2022/02/16 07:55:33;;;;;;;;;;;;;;;9.38;100.00;97188.22;5085792;28;20295;-63
2022/02/16 07:58:01;;;;;;;;;;;;;;;9.55;100.00;97180.38;5086017;28;20393;-64
2022/02/16 08:00:27;;;;;;;;;;;;;;;9.46;100.00;97169.78;5086312;28;19916;-62
2022/02/16 08:02:53;;;;;;;;;;;;;;;9.44;100.00;97162.16;5067552;28;20250;-64
2022/02/16 08:05:18;;;;;;;;;;;;;;;9.73;100.00;97154.53;5085349;28;20419;-63
2022/02/16 08:07:43;;;;;;;;;;;;;;;9.77;100.00;97148.31;5086238;28;20451;-63
2022/02/16 08:10:09;;;;;;;;;;;;;;;9.35;100.00;97129.28;5086118;28;19919;-63
2022/02/16 08:12:44;;;;;;;;;;;;;;;9.61;100.00;97133.75;5086237;28;19916;-64
2022/02/16 08:15:09;;;;;;;;;;;;;;;9.69;100.00;97135.06;5085062;28;20591;-62
2022/02/16 08:17:34;;;;;;;;;;;;;;;9.64;100.00;97125.03;5065298;28;19923;-64
2022/02/16 08:20:00;;;;;;;;;;;;;;;9.75;100.00;97127.81;5082170;28;19924;-62
2022/02/16 08:22:25;;;;;;;;;;;;;;;9.79;100.00;97131.03;5084947;28;20103;-62
2022/02/16 08:24:50;;;;;;;;;;;;;;;9.63;100.00;97106.22;5082554;28;21390;-62
2022/02/16 08:27:16;;;;;;;;;;;;;;;9.93;100.00;97123.34;5074758;28;20262;-63
2022/02/16 08:29:41;;;;;;;;;;;;;;;9.84;100.00;97117.00;5077975;28;19981;-63
2022/02/16 08:32:06;;;;;;;;;;;;;;;9.88;100.00;97109.94;5085482;28;20012;-63
2022/02/16 08:34:32;;;;;;;;;;;;;;;9.48;100.00;97137.13;5083740;28;20027;-63
2022/02/16 08:36:58;;;;;;;;;;;;;;;9.62;100.00;97148.28;5064313;28;19912;-62
2022/02/16 08:39:24;;;;;;;;;;;;;;;10.08;100.00;97136.19;5083762;28;19915;-63
2022/02/16 08:41:50;;;;;;;;;;;;;;;10.10;100.00;97113.78;5083103;28;19922;-63
2022/02/16 08:44:15;;;;;;;;;;;;;;;10.10;100.00;97104.31;5082891;28;20002;-63
2022/02/16 08:46:40;;;;;;;;;;;;;;;9.66;100.00;97100.09;5084991;28;19916;-63
2022/02/16 08:49:06;;;;;;;;;;;;;;;10.04;100.00;97100.38;5083810;28;19916;-63
2022/02/16 08:51:31;;;;;;;;;;;;;;;10.02;100.00;97091.91;5084755;28;19912;-64
2022/02/16 08:53:56;;;;;;;;;;;;;;;10.04;100.00;97118.38;5084390;28;19916;-64
2022/02/16 08:56:22;;;;;;;;;;;;;;;9.98;100.00;97113.59;5084543;28;19966;-63
2022/02/16 08:58:47;;;;;;;;;;;;;;;10.16;100.00;97113.41;5084338;28;20305;-63
2022/02/16 09:01:13;;;;;;;;;;;;;;;9.87;100.00;97122.88;5088472;22;19929;-58
2022/02/16 09:03:39;;;;;;;;;;;;;;;10.27;100.00;97123.88;5044639;28;19916;-58
2022/02/16 09:06:04;;;;;;;;;;;;;;;10.17;100.00;97107.34;5062014;28;19913;-58
2022/02/16 09:08:29;;;;;;;;;;;;;;;10.22;100.00;97141.34;5063475;28;19936;-59
2022/02/16 09:10:55;;;;;;;;;;;;;;;10.01;100.00;97139.16;5061358;28;19925;-58
2022/02/16 09:13:20;;;;;;;;;;;;;;;10.23;100.00;97128.38;5062711;28;19916;-58
2022/02/16 09:15:45;;;;;;;;;;;;;;;10.00;100.00;97147.75;5046051;28;19917;-58
2022/02/16 09:18:11;;;;;;;;;;;;;;;9.94;100.00;97150.69;5062714;28;19912;-59
2022/02/16 09:20:36;;;;;;;;;;;;;;;10.30;100.00;97146.88;5061593;28;19924;-59
2022/02/16 09:23:01;;;;;;;;;;;;;;;10.15;100.00;97145.19;5063021;28;20341;-58
2022/02/16 09:25:27;;;;;;;;;;;;;;;9.98;100.00;97134.16;5063068;28;19923;-58
2022/02/16 09:27:52;;;;;;;;;;;;;;;10.58;100.00;97142.59;5063389;28;19999;-57
2022/02/16 09:30:18;;;;;;;;;;;;;;;9.90;100.00;97146.66;5062941;28;19917;-58
2022/02/16 09:32:43;;;;;;;;;;;;;;;9.90;100.00;97128.66;5063409;28;19912;-58
2022/02/16 09:35:09;;;;;;;;;;;;;;;10.10;100.00;97136.91;5062969;28;19928;-59
2022/02/16 09:37:34;;;;;;;;;;;;;;;10.25;100.00;97118.00;5063451;28;20096;-58
2022/02/16 09:39:59;;;;;;;;;;;;;;;10.44;100.00;97128.00;5062871;28;19962;-57
2022/02/16 09:42:25;;;;;;;;;;;;;;;10.54;100.00;97136.03;5063672;28;19920;-58
2022/02/16 09:45:03;;;;;;;;;;;;;;;10.25;100.00;97133.44;5045079;28;19948;-57
2022/02/16 09:47:30;;;;;;;;;;;;;;;10.34;100.00;97138.06;5062891;28;19916;-59
2022/02/16 09:49:55;;;;;;;;;;;;;;;10.84;100.00;97130.69;5062371;28;19916;-58
2022/02/16 09:52:21;;;;;;;;;;;;;;;10.00;100.00;97109.19;5044436;28;20512;-59
2022/02/16 09:54:46;;;;;;;;;;;;;;;10.36;100.00;97115.63;5062196;28;19927;-58
2022/02/16 09:57:12;;;;;;;;;;;;;;;10.36;100.00;97123.34;5062789;28;19969;-59
2022/02/16 09:59:37;;;;;;;;;;;;;;;10.60;100.00;97138.19;5062500;28;19966;-59
2022/02/16 10:02:03;;;;;;;;;;;;;;;10.48;100.00;97154.41;5062190;28;19947;-59
2022/02/16 10:04:29;;;;;;;;;;;;;;;10.62;100.00;97168.06;5062906;28;19916;-59
2022/02/16 10:06:55;;;;;;;;;;;;;;;10.12;100.00;97178.81;5062149;28;20031;-59
2022/02/16 10:09:23;;;;;;;;;;;;;;;10.81;100.00;97182.38;5062243;28;19999;-58
2022/02/16 10:11:54;;;;;;;;;;;;;;;10.49;98.83;97182.63;5058988;28;19920;-58
2022/02/16 10:14:24;;;;;;;;;;;;;;;10.81;94.69;97183.22;5059869;28;19958;-58
2022/02/16 10:16:49;;;;;;;;;;;;;;;10.40;96.21;97193.44;5061203;28;19921;-61
2022/02/16 10:19:15;;;;;;;;;;;;;;;10.63;93.32;97186.94;5062318;28;19913;-59
2022/02/16 10:21:59;;;;;;;;;;;;;;;10.52;90.66;97186.75;5062078;28;19913;-58
2022/02/16 10:24:24;;;;;;;;;;;;;;;10.92;90.19;97186.84;5062164;28;19916;-58
2022/02/16 10:26:50;;;;;;;;;;;;;;;10.74;91.77;97181.94;5062367;28;19916;-59
2022/02/16 10:29:19;;;;;;;;;;;;;;;10.83;92.55;97181.38;5061569;28;19923;-57
2022/02/16 10:31:44;;;;;;;;;;;;;;;10.87;89.20;97176.84;5060069;28;20325;-58
2022/02/16 10:34:09;;;;;;;;;;;;;;;10.92;88.32;97173.97;5061435;28;19925;-58
2022/02/16 10:36:35;;;;;;;;;;;;;;;10.75;87.12;97183.59;5062039;28;19962;-59
2022/02/16 10:39:00;;;;;;;;;;;;;;;11.01;89.27;97186.28;5064413;28;19916;-60
2022/02/16 10:41:30;;;;;;;;;;;;;;;11.04;90.86;97186.09;5065211;28;19927;-61
2022/02/16 10:43:56;;;;;;;;;;;;;;;11.00;85.34;97167.44;5064083;28;20726;-61
2022/02/16 10:46:22;;;;;;;;;;;;;;;11.05;86.69;97180.03;5064185;28;19950;-58
2022/02/16 10:48:48;;;;;;;;;;;;;;;11.36;93.21;97157.44;5061420;28;19912;-61
2022/02/16 10:51:20;;;;;;;;;;;;;;;11.32;93.36;97161.16;5061200;28;19939;-61
2022/02/16 10:53:45;;;;;;;;;;;;;;;11.08;92.09;97159.22;5061741;28;20373;-61
2022/02/16 10:56:11;;;;;;;;;;;;;;;11.34;92.42;97149.00;5042752;28;20007;-61
2022/02/16 10:58:36;;;;;;;;;;;;;;;11.18;94.08;97139.69;5060381;28;20366;-61
2022/02/16 11:01:01;;;;;;;;;;;;;;;11.11;91.64;97156.47;5060090;28;20377;-59
2022/02/16 11:03:29;;;;;;;;;;;;;;;11.09;84.89;97181.47;5058915;28;20358;-61
2022/02/16 11:05:55;;;;;;;;;;;;;;;10.99;84.91;97175.25;5060800;28;19943;-61
2022/02/16 11:08:21;;;;;;;;;;;;;;;11.32;87.55;97181.78;5060879;28;20378;-60
2022/02/16 11:10:47;;;;;;;;;;;;;;;11.30;87.46;97161.25;5042469;28;19916;-60
2022/02/16 11:13:14;;;;;;;;;;;;;;;11.10;81.70;97162.50;5042954;28;20266;-60
2022/02/16 11:15:40;;;;;;;;;;;;;;;11.35;81.13;97158.38;5060757;28;19970;-61
2022/02/16 11:18:12;;;;;;;;;;;;;;;11.40;80.73;97161.47;5060173;28;19916;-61
2022/02/16 11:20:37;;;;;;;;;;;;;;;11.45;83.13;97138.81;5060319;28;19943;-59
2022/02/16 11:23:05;;;;;;;;;;;;;;;11.64;81.02;97152.13;5058941;28;19923;-61
2022/02/16 11:25:40;;;;;;;;;;;;;;;11.55;82.88;97141.63;5059417;28;19916;-61
2022/02/16 11:28:13;;;;;;;;;;;;;;;11.54;80.62;97139.94;5059940;28;19978;-61
2022/02/16 11:30:41;;;;;;;;;;;;;;;11.29;76.39;97121.78;5061163;28;19966;-61
2022/02/16 11:33:22;;;;;;;;;;;;;;;11.83;76.45;97128.53;5061349;28;19916;-61
2022/02/16 11:35:54;;;;;;;;;;;;;;;11.92;82.10;97114.22;5043285;28;19920;-61
2022/02/16 11:38:21;;;;;;;;;;;;;;;11.48;79.75;97107.69;5043456;28;19916;-61
2022/02/16 11:40:56;;;;;;;;;;;;;;;11.87;77.31;97111.09;5061495;28;19916;-61
2022/02/16 11:43:45;;;;;;;;;;;;;;;11.83;78.04;97120.78;5060983;28;20398;-61
2022/02/16 11:46:11;;;;;;;;;;;;;;;12.06;75.98;97121.84;5048188;28;19916;-62
2022/02/16 11:48:36;;;;;;;;;;;;;;;11.81;79.77;97121.81;5026223;28;20271;-61
2022/02/16 11:51:22;;;;;;;;;;;;;;;11.64;77.90;97100.56;5060591;28;19923;-61
2022/02/16 11:53:48;;;;;;;;;;;;;;;11.85;74.00;97094.91;5060782;28;20396;-61
2022/02/16 11:56:17;;;;;;;;;;;;;;;11.78;76.16;97085.94;5042512;28;20541;-61
2022/02/16 11:58:42;;;;;;;;;;;;;;;11.96;76.77;97087.28;5041661;28;19966;-61
2022/02/16 12:01:14;;;;;;;;;;;;;;;12.17;79.25;97076.44;5042274;28;19928;-61
2022/02/16 12:03:49;;;;;;;;;;;;;;;11.96;75.21;97069.22;5060442;28;19919;-61
2022/02/16 12:06:15;;;;;;;;;;;;;;;11.76;74.13;97085.22;5060313;28;20400;-60
2022/02/16 12:09:03;;;;;;;;;;;;;;;11.99;74.26;97094.00;5060360;28;20374;-61
2022/02/16 12:11:29;;;;;;;;;;;;;;;12.46;70.97;97102.78;5060398;28;20362;-61
2022/02/16 12:14:15;;;;;;;;;;;;;;;12.29;73.26;97111.69;5059377;28;19933;-61
2022/02/16 12:16:48;;;;;;;;;;;;;;;12.68;74.56;97123.59;5058499;28;19912;-60
2022/02/16 12:19:19;;;;;;;;;;;;;;;12.66;73.74;97091.06;5059809;28;20007;-61
2022/02/16 12:21:51;;;;;;;;;;;;;;;12.71;74.95;97097.53;5059597;28;19916;-61
2022/02/16 12:24:22;;;;;;;;;;;;;;;12.46;73.69;97082.97;5041087;28;19938;-60
2022/02/16 12:26:49;;;;;;;;;;;;;;;12.67;73.37;97079.78;5059136;28;19962;-61
2022/02/16 12:29:17;;;;;;;;;;;;;;;12.49;75.46;97067.25;5059737;28;19916;-61
2022/02/16 12:31:46;;;;;;;;;;;;;;;12.68;71.87;97066.78;5059566;28;20435;-60
2022/02/16 12:34:13;;;;;;;;;;;;;;;12.64;77.31;97059.38;5041591;28;20263;-60
2022/02/16 12:36:45;;;;;;;;;;;;;;;12.50;72.10;97056.00;5059670;28;20007;-61
2022/02/16 12:39:11;;;;;;;;;;;;;;;12.28;73.06;97074.75;5059694;28;19920;-61
2022/02/16 12:41:37;;;;;;;;;;;;;;;12.51;69.18;97070.53;5063757;28;19958;-60
2022/02/16 12:44:05;;;;;;;;;;;;;;;12.47;65.67;97060.53;5063365;28;20370;-60
2022/02/16 12:46:32;;;;;;;;;;;;;;;12.46;66.24;97074.41;5063673;28;20019;-60